createdAt,value
2023-10-26T00:02:02.281Z,-3.03
2023-10-26T00:04:32.234Z,-3.03
2023-10-26T00:07:02.243Z,-3.02
2023-10-26T00:09:32.794Z,-2.99
2023-10-26T00:12:01.720Z,-3.00
2023-10-26T00:14:30.709Z,-2.97
2023-10-26T00:16:59.740Z,-2.93
2023-10-26T00:19:28.786Z,-2.91
2023-10-26T00:21:57.882Z,-2.92
2023-10-26T00:24:26.944Z,-2.90
2023-10-26T00:26:57.279Z,-2.90
2023-10-26T00:29:26.544Z,-2.88
2023-10-26T00:31:55.633Z,-2.86
2023-10-26T00:34:24.643Z,-2.84
2023-10-26T00:36:53.765Z,-2.81
2023-10-26T00:39:22.805Z,-2.80
2023-10-26T00:41:52.838Z,-2.83
2023-10-26T00:44:24.041Z,-2.81
2023-10-26T00:46:55.645Z,-2.79
2023-10-26T00:49:26.089Z,-2.78
2023-10-26T00:51:59.756Z,-2.77
2023-10-26T00:54:29.638Z,-2.79
2023-10-26T00:56:59.871Z,-2.78
2023-10-26T00:59:31.568Z,-2.80
2023-10-26T01:02:04.421Z,-2.80
2023-10-26T01:04:33.464Z,-2.81
2023-10-26T01:07:03.318Z,-2.81
2023-10-26T01:09:32.362Z,-2.79
2023-10-26T01:12:02.672Z,-2.79
2023-10-26T01:14:33.308Z,-2.76
2023-10-26T01:17:03.322Z,-2.76
2023-10-26T01:19:42.893Z,-2.78
2023-10-26T01:22:13.531Z,-2.79
2023-10-26T01:24:43.442Z,-2.80
2023-10-26T01:27:12.795Z,-2.77
2023-10-26T01:29:42.041Z,-2.78
2023-10-26T01:32:11.080Z,-2.78
2023-10-26T01:34:40.730Z,-2.79
2023-10-26T01:37:09.766Z,-2.81
2023-10-26T01:39:40.152Z,-2.81
2023-10-26T01:42:11.342Z,-2.81
2023-10-26T01:44:42.433Z,-2.82
2023-10-26T01:47:12.694Z,-2.84
2023-10-26T01:49:41.905Z,-2.83
2023-10-26T01:52:10.848Z,-2.82
2023-10-26T01:54:41.471Z,-2.81
2023-10-26T01:57:10.597Z,-2.81
2023-10-26T01:59:41.327Z,-2.78
2023-10-26T02:02:10.409Z,-2.81
2023-10-26T02:04:39.936Z,-2.81
2023-10-26T02:07:08.946Z,-2.84
2023-10-26T02:09:38.261Z,-2.83
2023-10-26T02:12:09.373Z,-2.83
2023-10-26T02:14:38.374Z,-2.83
2023-10-26T02:17:07.702Z,-2.85
2023-10-26T02:19:36.992Z,-2.85
2023-10-26T02:22:06.481Z,-2.88
2023-10-26T02:24:35.581Z,-2.86
2023-10-26T02:27:04.608Z,-2.91
2023-10-26T02:29:35.249Z,-2.96
2023-10-26T02:32:04.780Z,-3.01
2023-10-26T02:34:33.865Z,-3.10
2023-10-26T02:37:03.510Z,-3.23
2023-10-26T02:39:33.286Z,-3.37
2023-10-26T02:42:02.317Z,-3.55
2023-10-26T02:44:31.304Z,-3.64
2023-10-26T02:47:01.665Z,-3.73
2023-10-26T02:49:32.240Z,-3.82
2023-10-26T02:52:01.623Z,-3.98
2023-10-26T02:54:31.472Z,-4.07
2023-10-26T02:57:00.582Z,-4.23
2023-10-26T02:59:29.564Z,-4.36
2023-10-26T03:01:58.834Z,-4.43
2023-10-26T03:04:29.213Z,-4.49
2023-10-26T03:06:58.989Z,-4.57
2023-10-26T03:09:28.152Z,-4.56
2023-10-26T03:11:57.377Z,-4.61
2023-10-26T03:14:26.394Z,-4.54
2023-10-26T03:16:55.479Z,-4.64
2023-10-26T03:19:24.613Z,-4.77
2023-10-26T03:21:55.017Z,-4.86
2023-10-26T03:24:24.346Z,-4.80
2023-10-26T03:26:53.616Z,-4.77
2023-10-26T03:29:23.041Z,-4.75
2023-10-26T03:31:52.809Z,-4.71
2023-10-26T03:34:21.994Z,-4.59
2023-10-26T03:36:51.030Z,-4.46
2023-10-26T03:39:22.327Z,-4.33
2023-10-26T03:41:51.392Z,-4.23
2023-10-26T03:44:20.497Z,-4.13
2023-10-26T03:46:49.823Z,-4.05
2023-10-26T03:49:18.891Z,-3.99
2023-10-26T03:51:48.272Z,-3.93
2023-10-26T03:54:17.472Z,-3.86
2023-10-26T03:56:49.245Z,-3.81
2023-10-26T03:59:19.047Z,-3.77
2023-10-26T04:01:48.074Z,-3.71
2023-10-26T04:04:17.117Z,-3.69
2023-10-26T04:06:46.620Z,-3.65
2023-10-26T04:09:15.993Z,-3.63
2023-10-26T04:11:46.354Z,-3.59
2023-10-26T04:14:16.907Z,-3.57
2023-10-26T04:16:48.961Z,-3.53
2023-10-26T04:19:18.262Z,-3.54
2023-10-26T04:21:47.342Z,-3.51
2023-10-26T04:24:16.609Z,-3.49
2023-10-26T04:26:45.727Z,-3.47
2023-10-26T04:29:14.809Z,-3.42
2023-10-26T04:31:45.254Z,-3.38
2023-10-26T04:34:14.303Z,-3.35
2023-10-26T04:36:43.352Z,-3.33
2023-10-26T04:39:14.242Z,-3.32
2023-10-26T04:41:43.420Z,-3.26
2023-10-26T04:44:13.354Z,-3.28
2023-10-26T04:46:42.339Z,-3.24
2023-10-26T04:49:12.756Z,-3.21
2023-10-26T04:51:41.843Z,-3.19
2023-10-26T04:54:10.878Z,-3.13
2023-10-26T04:56:39.961Z,-3.13
2023-10-26T04:59:08.945Z,-3.06
2023-10-26T05:01:38.175Z,-3.09
2023-10-26T05:04:08.023Z,-3.06
2023-10-26T05:06:38.642Z,-3.02
2023-10-26T05:09:07.913Z,-3.01
2023-10-26T05:11:36.869Z,-2.95
2023-10-26T05:14:07.984Z,-2.88
2023-10-26T05:16:38.087Z,-2.90
2023-10-26T05:19:07.429Z,-2.86
2023-10-26T05:21:36.591Z,-2.88
2023-10-26T05:24:07.686Z,-2.90
2023-10-26T05:26:36.989Z,-2.87
2023-10-26T05:29:06.138Z,-2.91
2023-10-26T05:31:35.109Z,-2.85
2023-10-26T05:34:04.133Z,-2.78
2023-10-26T05:36:33.183Z,-2.74
2023-10-26T05:39:02.191Z,-2.73
2023-10-26T05:41:32.646Z,-2.69
2023-10-26T05:44:01.619Z,-2.71
2023-10-26T05:46:30.838Z,-2.63
2023-10-26T05:49:00.029Z,-2.56
2023-10-26T05:51:29.152Z,-2.56
2023-10-26T05:53:58.686Z,-2.54
2023-10-26T05:56:27.825Z,-2.52
2023-10-26T05:58:58.162Z,-2.51
2023-10-26T06:01:28.028Z,-2.42
2023-10-26T06:03:57.262Z,-2.35
2023-10-26T06:06:26.511Z,-2.44
2023-10-26T06:08:55.634Z,-2.54
2023-10-26T06:11:24.769Z,-2.45
2023-10-26T06:13:53.994Z,-2.31
2023-10-26T06:16:24.615Z,-2.21
2023-10-26T06:18:53.669Z,-2.14
2023-10-26T06:21:22.689Z,-2.14
2023-10-26T06:23:51.776Z,-2.07
2023-10-26T06:26:20.728Z,-2.06
2023-10-26T06:28:49.763Z,-2.07
2023-10-26T06:31:18.880Z,-2.08
2023-10-26T06:33:49.456Z,-2.08
2023-10-26T06:36:18.530Z,-2.11
2023-10-26T06:38:47.595Z,-2.23
2023-10-26T06:41:16.702Z,-2.20
2023-10-26T06:43:45.862Z,-2.07
2023-10-26T06:46:14.913Z,-2.11
2023-10-26T06:48:44.212Z,-2.12
2023-10-26T06:51:14.745Z,-2.05
2023-10-26T06:53:43.797Z,-2.07
2023-10-26T06:56:13.650Z,-1.92
2023-10-26T06:58:43.791Z,-1.84
2023-10-26T07:01:19.493Z,-2.02
2023-10-26T07:03:50.099Z,-2.04
2023-10-26T07:06:21.252Z,-1.74
2023-10-26T07:08:56.467Z,-1.51
2023-10-26T07:11:26.392Z,-1.42
2023-10-26T07:13:55.613Z,-1.57
2023-10-26T07:16:25.984Z,-1.75
2023-10-26T07:18:55.265Z,-1.63
2023-10-26T07:21:26.574Z,-1.47
2023-10-26T07:23:55.734Z,-1.43
2023-10-26T07:26:24.757Z,-1.17
2023-10-26T07:28:53.831Z,-1.02
2023-10-26T07:31:23.657Z,-0.89
2023-10-26T07:33:52.716Z,-0.97
2023-10-26T07:36:21.734Z,-0.82
2023-10-26T07:39:46.734Z,-1.06
2023-10-26T07:42:08.095Z,-0.99
2023-10-26T07:44:32.252Z,-1.19
2023-10-26T07:47:01.476Z,-1.28
2023-10-26T07:49:31.016Z,-1.01
2023-10-26T07:52:00.038Z,-0.83
2023-10-26T07:54:30.505Z,-0.80
2023-10-26T07:56:59.614Z,-0.72
2023-10-26T07:59:28.832Z,-0.79
2023-10-26T08:01:58.005Z,-0.65
2023-10-26T08:04:28.791Z,-0.81
2023-10-26T08:06:58.126Z,-0.88
2023-10-26T08:09:34.241Z,-0.83
2023-10-26T08:12:04.361Z,-0.59
2023-10-26T08:16:04.410Z,-0.25
2023-10-26T08:17:22.613Z,0.18
2023-10-26T08:19:55.248Z,0.37
2023-10-26T08:22:24.929Z,0.23
2023-10-26T08:24:55.418Z,-0.16
2023-10-26T08:27:25.061Z,-0.09
2023-10-26T08:29:54.431Z,-0.61
2023-10-26T08:32:23.773Z,-0.78
2023-10-26T08:34:52.882Z,-0.77
2023-10-26T08:37:22.918Z,-0.86
2023-10-26T08:39:54.508Z,-0.94
2023-10-26T08:42:23.661Z,-1.04
2023-10-26T08:44:56.731Z,-1.02
2023-10-26T08:47:29.474Z,-1.27
2023-10-26T08:50:15.472Z,-1.25
2023-10-26T08:52:45.833Z,-1.15
2023-10-26T08:55:16.952Z,-1.44
2023-10-26T08:57:49.901Z,-1.54
2023-10-26T09:00:19.425Z,-1.35
2023-10-26T09:02:51.075Z,-1.30
2023-10-26T09:05:20.628Z,-1.05
2023-10-26T09:07:50.109Z,-0.78
2023-10-26T09:10:30.627Z,-0.57
2023-10-26T09:13:01.963Z,-0.18
2023-10-26T09:15:31.579Z,0.07
2023-10-26T09:18:10.795Z,0.58
2023-10-26T09:20:40.271Z,1.07
